sensor_id;sensor_type;location;lat;lon;timestamp;P1;durP1;ratioP1;P2;durP2;ratioP2
66761;SDS011;53672;48.176;16.338;2023-09-19T00:01:57;2.53;;;0.85;;
66761;SDS011;53672;48.176;16.338;2023-09-19T00:06:57;2.97;;;0.90;;
66761;SDS011;53672;48.176;16.338;2023-09-19T00:11:59;2.40;;;0.70;;
66761;SDS011;53672;48.176;16.338;2023-09-19T00:17:00;3.63;;;0.70;;
66761;SDS011;53672;48.176;16.338;2023-09-19T00:22:00;2.63;;;0.60;;
66761;SDS011;53672;48.176;16.338;2023-09-19T00:27:03;4.15;;;0.80;;
66761;SDS011;53672;48.176;16.338;2023-09-19T00:32:04;2.80;;;0.60;;
66761;SDS011;53672;48.176;16.338;2023-09-19T00:37:04;3.10;;;0.63;;
66761;SDS011;53672;48.176;16.338;2023-09-19T00:42:06;2.93;;;0.80;;
66761;SDS011;53672;48.176;16.338;2023-09-19T00:47:07;3.58;;;0.73;;
66761;SDS011;53672;48.176;16.338;2023-09-19T00:52:07;2.20;;;0.50;;
66761;SDS011;53672;48.176;16.338;2023-09-19T00:57:09;2.20;;;0.50;;
66761;SDS011;53672;48.176;16.338;2023-09-19T01:02:10;2.83;;;0.60;;
66761;SDS011;53672;48.176;16.338;2023-09-19T01:07:10;2.33;;;0.60;;
66761;SDS011;53672;48.176;16.338;2023-09-19T01:12:12;2.10;;;0.60;;
66761;SDS011;53672;48.176;16.338;2023-09-19T01:17:24;2.20;;;0.60;;
66761;SDS011;53672;48.176;16.338;2023-09-19T01:22:29;2.90;;;0.63;;
66761;SDS011;53672;48.176;16.338;2023-09-19T01:27:49;2.58;;;0.80;;
66761;SDS011;53672;48.176;16.338;2023-09-19T01:33:07;4.17;;;0.90;;
66761;SDS011;53672;48.176;16.338;2023-09-19T01:38:08;3.42;;;0.85;;
66761;SDS011;53672;48.176;16.338;2023-09-19T01:43:09;3.97;;;0.90;;
66761;SDS011;53672;48.176;16.338;2023-09-19T01:48:19;3.60;;;0.75;;
66761;SDS011;53672;48.176;16.338;2023-09-19T01:53:27;3.30;;;0.73;;
66761;SDS011;53672;48.176;16.338;2023-09-19T01:58:34;3.58;;;0.80;;
66761;SDS011;53672;48.176;16.338;2023-09-19T02:03:41;3.05;;;0.70;;
66761;SDS011;53672;48.176;16.338;2023-09-19T02:08:43;4.23;;;0.70;;
66761;SDS011;53672;48.176;16.338;2023-09-19T02:13:44;4.57;;;1.10;;
66761;SDS011;53672;48.176;16.338;2023-09-19T02:18:47;2.70;;;0.60;;
66761;SDS011;53672;48.176;16.338;2023-09-19T02:23:47;2.53;;;0.77;;
66761;SDS011;53672;48.176;16.338;2023-09-19T02:28:48;3.67;;;0.90;;
66761;SDS011;53672;48.176;16.338;2023-09-19T02:33:50;4.93;;;0.83;;
66761;SDS011;53672;48.176;16.338;2023-09-19T02:38:50;4.60;;;0.80;;
66761;SDS011;53672;48.176;16.338;2023-09-19T02:43:51;3.37;;;0.80;;
66761;SDS011;53672;48.176;16.338;2023-09-19T02:48:52;3.37;;;0.87;;
66761;SDS011;53672;48.176;16.338;2023-09-19T02:53:53;3.10;;;0.60;;
66761;SDS011;53672;48.176;16.338;2023-09-19T02:58:53;3.13;;;0.70;;
66761;SDS011;53672;48.176;16.338;2023-09-19T03:03:55;3.03;;;0.90;;
66761;SDS011;53672;48.176;16.338;2023-09-19T03:08:56;3.30;;;0.70;;
66761;SDS011;53672;48.176;16.338;2023-09-19T03:13:56;2.23;;;0.60;;
66761;SDS011;53672;48.176;16.338;2023-09-19T03:18:58;3.15;;;0.90;;
66761;SDS011;53672;48.176;16.338;2023-09-19T03:23:59;3.67;;;0.73;;
66761;SDS011;53672;48.176;16.338;2023-09-19T03:28:59;3.23;;;0.80;;
66761;SDS011;53672;48.176;16.338;2023-09-19T03:34:01;3.63;;;0.70;;
66761;SDS011;53672;48.176;16.338;2023-09-19T03:39:02;2.70;;;0.88;;
66761;SDS011;53672;48.176;16.338;2023-09-19T03:44:02;3.13;;;0.90;;
66761;SDS011;53672;48.176;16.338;2023-09-19T03:49:04;6.30;;;1.00;;
66761;SDS011;53672;48.176;16.338;2023-09-19T03:54:05;3.97;;;1.03;;
66761;SDS011;53672;48.176;16.338;2023-09-19T03:59:05;3.33;;;0.90;;
66761;SDS011;53672;48.176;16.338;2023-09-19T04:04:07;3.53;;;1.10;;
66761;SDS011;53672;48.176;16.338;2023-09-19T04:09:08;4.97;;;1.10;;
66761;SDS011;53672;48.176;16.338;2023-09-19T04:14:08;3.30;;;1.00;;
66761;SDS011;53672;48.176;16.338;2023-09-19T04:19:10;3.43;;;1.13;;
66761;SDS011;53672;48.176;16.338;2023-09-19T04:24:11;4.15;;;1.13;;
66761;SDS011;53672;48.176;16.338;2023-09-19T04:29:11;3.83;;;1.10;;
66761;SDS011;53672;48.176;16.338;2023-09-19T04:34:13;3.67;;;1.20;;
66761;SDS011;53672;48.176;16.338;2023-09-19T04:39:14;4.47;;;1.25;;
66761;SDS011;53672;48.176;16.338;2023-09-19T04:44:14;3.80;;;1.40;;
66761;SDS011;53672;48.176;16.338;2023-09-19T04:49:16;3.93;;;1.20;;
66761;SDS011;53672;48.176;16.338;2023-09-19T04:54:16;5.20;;;1.25;;
66761;SDS011;53672;48.176;16.338;2023-09-19T04:59:17;3.83;;;1.50;;
66761;SDS011;53672;48.176;16.338;2023-09-19T05:04:19;4.27;;;1.40;;
66761;SDS011;53672;48.176;16.338;2023-09-19T05:09:19;5.20;;;1.40;;
66761;SDS011;53672;48.176;16.338;2023-09-19T05:14:20;4.63;;;1.40;;
66761;SDS011;53672;48.176;16.338;2023-09-19T05:19:21;4.83;;;1.47;;
66761;SDS011;53672;48.176;16.338;2023-09-19T05:24:22;7.22;;;1.70;;
66761;SDS011;53672;48.176;16.338;2023-09-19T05:29:22;5.80;;;1.70;;
66761;SDS011;53672;48.176;16.338;2023-09-19T05:34:24;4.37;;;1.70;;
66761;SDS011;53672;48.176;16.338;2023-09-19T05:39:25;7.00;;;1.90;;
66761;SDS011;53672;48.176;16.338;2023-09-19T05:44:25;4.50;;;1.63;;
66761;SDS011;53672;48.176;16.338;2023-09-19T05:49:27;5.67;;;1.67;;
66761;SDS011;53672;48.176;16.338;2023-09-19T05:54:27;5.60;;;1.90;;
66761;SDS011;53672;48.176;16.338;2023-09-19T05:59:28;4.50;;;1.67;;
66761;SDS011;53672;48.176;16.338;2023-09-19T06:04:30;6.07;;;1.60;;
66761;SDS011;53672;48.176;16.338;2023-09-19T06:09:30;4.63;;;1.48;;
66761;SDS011;53672;48.176;16.338;2023-09-19T06:14:31;5.87;;;2.03;;
66761;SDS011;53672;48.176;16.338;2023-09-19T06:19:32;3.97;;;1.67;;
66761;SDS011;53672;48.176;16.338;2023-09-19T06:24:33;5.13;;;1.70;;
66761;SDS011;53672;48.176;16.338;2023-09-19T06:29:33;5.70;;;2.53;;
66761;SDS011;53672;48.176;16.338;2023-09-19T06:34:35;4.30;;;1.38;;
66761;SDS011;53672;48.176;16.338;2023-09-19T06:39:36;6.75;;;3.13;;
66761;SDS011;53672;48.176;16.338;2023-09-19T06:44:36;6.57;;;2.33;;
66761;SDS011;53672;48.176;16.338;2023-09-19T06:49:38;5.13;;;1.80;;
66761;SDS011;53672;48.176;16.338;2023-09-19T06:54:38;4.68;;;1.50;;
66761;SDS011;53672;48.176;16.338;2023-09-19T06:59:39;4.90;;;1.50;;
66761;SDS011;53672;48.176;16.338;2023-09-19T07:04:41;6.50;;;2.43;;
66761;SDS011;53672;48.176;16.338;2023-09-19T07:09:41;6.22;;;1.70;;
66761;SDS011;53672;48.176;16.338;2023-09-19T07:14:42;4.90;;;1.60;;
66761;SDS011;53672;48.176;16.338;2023-09-19T07:19:44;4.43;;;1.60;;
66761;SDS011;53672;48.176;16.338;2023-09-19T07:24:44;5.10;;;1.43;;
66761;SDS011;53672;48.176;16.338;2023-09-19T07:29:45;5.75;;;1.42;;
66761;SDS011;53672;48.176;16.338;2023-09-19T07:34:47;4.93;;;1.50;;
66761;SDS011;53672;48.176;16.338;2023-09-19T07:39:47;5.65;;;1.52;;
66761;SDS011;53672;48.176;16.338;2023-09-19T07:44:48;4.20;;;1.60;;
66761;SDS011;53672;48.176;16.338;2023-09-19T07:49:50;5.00;;;1.60;;
66761;SDS011;53672;48.176;16.338;2023-09-19T07:54:50;5.70;;;1.70;;
66761;SDS011;53672;48.176;16.338;2023-09-19T07:59:51;3.95;;;1.55;;
66761;SDS011;53672;48.176;16.338;2023-09-19T08:04:52;4.43;;;1.60;;
66761;SDS011;53672;48.176;16.338;2023-09-19T08:09:53;6.13;;;1.60;;
66761;SDS011;53672;48.176;16.338;2023-09-19T08:14:53;6.13;;;1.70;;
66761;SDS011;53672;48.176;16.338;2023-09-19T08:19:55;4.73;;;1.50;;
66761;SDS011;53672;48.176;16.338;2023-09-19T08:24:56;4.60;;;1.70;;
66761;SDS011;53672;48.176;16.338;2023-09-19T08:29:56;5.87;;;1.43;;
66761;SDS011;53672;48.176;16.338;2023-09-19T08:34:58;4.73;;;1.57;;
66761;SDS011;53672;48.176;16.338;2023-09-19T08:39:58;5.32;;;1.50;;
66761;SDS011;53672;48.176;16.338;2023-09-19T08:44:59;4.77;;;1.80;;
66761;SDS011;53672;48.176;16.338;2023-09-19T08:50:04;5.18;;;1.58;;
66761;SDS011;53672;48.176;16.338;2023-09-19T08:55:11;4.28;;;1.50;;
66761;SDS011;53672;48.176;16.338;2023-09-19T09:00:13;5.15;;;1.50;;
66761;SDS011;53672;48.176;16.338;2023-09-19T09:05:16;4.27;;;1.47;;
66761;SDS011;53672;48.176;16.338;2023-09-19T09:10:18;5.78;;;1.80;;
66761;SDS011;53672;48.176;16.338;2023-09-19T09:15:19;5.10;;;1.70;;
66761;SDS011;53672;48.176;16.338;2023-09-19T09:20:22;4.85;;;1.50;;
66761;SDS011;53672;48.176;16.338;2023-09-19T09:25:22;3.87;;;1.50;;
66761;SDS011;53672;48.176;16.338;2023-09-19T09:30:43;4.15;;;1.83;;
66761;SDS011;53672;48.176;16.338;2023-09-19T09:35:48;4.40;;;1.70;;
66761;SDS011;53672;48.176;16.338;2023-09-19T09:40:50;5.47;;;1.60;;
66761;SDS011;53672;48.176;16.338;2023-09-19T09:45:57;3.97;;;1.60;;
66761;SDS011;53672;48.176;16.338;2023-09-19T09:51:08;5.78;;;2.03;;
66761;SDS011;53672;48.176;16.338;2023-09-19T09:56:09;3.93;;;1.40;;
66761;SDS011;53672;48.176;16.338;2023-09-19T10:01:09;4.77;;;1.80;;
66761;SDS011;53672;48.176;16.338;2023-09-19T10:06:11;4.60;;;1.43;;
66761;SDS011;53672;48.176;16.338;2023-09-19T10:11:15;3.80;;;1.50;;
66761;SDS011;53672;48.176;16.338;2023-09-19T10:16:16;3.58;;;1.80;;
66761;SDS011;53672;48.176;16.338;2023-09-19T10:21:19;3.23;;;1.53;;
66761;SDS011;53672;48.176;16.338;2023-09-19T10:26:19;3.42;;;1.52;;
66761;SDS011;53672;48.176;16.338;2023-09-19T10:31:20;4.03;;;1.90;;
66761;SDS011;53672;48.176;16.338;2023-09-19T10:36:23;3.42;;;1.65;;
66761;SDS011;53672;48.176;16.338;2023-09-19T10:41:24;4.32;;;1.65;;
66761;SDS011;53672;48.176;16.338;2023-09-19T10:46:26;4.77;;;2.10;;
66761;SDS011;53672;48.176;16.338;2023-09-19T10:51:29;4.67;;;2.40;;
66761;SDS011;53672;48.176;16.338;2023-09-19T10:56:38;5.53;;;2.75;;
66761;SDS011;53672;48.176;16.338;2023-09-19T11:01:43;5.05;;;2.30;;
66761;SDS011;53672;48.176;16.338;2023-09-19T11:06:51;4.25;;;2.50;;
66761;SDS011;53672;48.176;16.338;2023-09-19T11:12:00;4.40;;;2.50;;
66761;SDS011;53672;48.176;16.338;2023-09-19T11:28:30;3.80;;;2.13;;
66761;SDS011;53672;48.176;16.338;2023-09-19T11:33:32;3.72;;;2.10;;
66761;SDS011;53672;48.176;16.338;2023-09-19T11:49:33;3.70;;;2.40;;
66761;SDS011;53672;48.176;16.338;2023-09-19T11:54:34;4.10;;;2.50;;
66761;SDS011;53672;48.176;16.338;2023-09-19T11:59:38;3.83;;;2.90;;
66761;SDS011;53672;48.176;16.338;2023-09-19T12:04:40;4.40;;;3.15;;
66761;SDS011;53672;48.176;16.338;2023-09-19T12:09:42;4.63;;;3.00;;
66761;SDS011;53672;48.176;16.338;2023-09-19T12:14:47;3.90;;;3.10;;
66761;SDS011;53672;48.176;16.338;2023-09-19T12:19:52;4.82;;;2.70;;
66761;SDS011;53672;48.176;16.338;2023-09-19T12:24:54;3.95;;;2.28;;
66761;SDS011;53672;48.176;16.338;2023-09-19T12:30:06;4.38;;;2.00;;
66761;SDS011;53672;48.176;16.338;2023-09-19T12:35:09;3.90;;;1.80;;
66761;SDS011;53672;48.176;16.338;2023-09-19T12:40:10;3.95;;;1.63;;
66761;SDS011;53672;48.176;16.338;2023-09-19T12:45:11;3.88;;;1.80;;
66761;SDS011;53672;48.176;16.338;2023-09-19T12:50:14;3.80;;;1.50;;
66761;SDS011;53672;48.176;16.338;2023-09-19T12:55:21;3.83;;;1.75;;
66761;SDS011;53672;48.176;16.338;2023-09-19T13:00:31;4.57;;;1.70;;
66761;SDS011;53672;48.176;16.338;2023-09-19T13:05:52;4.85;;;1.70;;
66761;SDS011;53672;48.176;16.338;2023-09-19T13:11:03;3.60;;;1.60;;
66761;SDS011;53672;48.176;16.338;2023-09-19T13:16:04;4.60;;;1.60;;
66761;SDS011;53672;48.176;16.338;2023-09-19T13:21:06;3.13;;;1.50;;
66761;SDS011;53672;48.176;16.338;2023-09-19T13:26:07;3.50;;;1.70;;
66761;SDS011;53672;48.176;16.338;2023-09-19T13:31:09;3.23;;;1.60;;
66761;SDS011;53672;48.176;16.338;2023-09-19T13:36:11;4.15;;;1.45;;
66761;SDS011;53672;48.176;16.338;2023-09-19T13:41:12;3.30;;;1.40;;
66761;SDS011;53672;48.176;16.338;2023-09-19T13:46:12;4.13;;;1.75;;
66761;SDS011;53672;48.176;16.338;2023-09-19T13:51:14;3.23;;;1.43;;
66761;SDS011;53672;48.176;16.338;2023-09-19T13:56:15;3.30;;;1.30;;
66761;SDS011;53672;48.176;16.338;2023-09-19T14:01:15;11.93;;;1.80;;
66761;SDS011;53672;48.176;16.338;2023-09-19T14:06:17;3.67;;;1.73;;
66761;SDS011;53672;48.176;16.338;2023-09-19T14:11:18;3.10;;;1.50;;
66761;SDS011;53672;48.176;16.338;2023-09-19T14:16:18;3.85;;;1.60;;
66761;SDS011;53672;48.176;16.338;2023-09-19T14:21:20;5.27;;;1.67;;
66761;SDS011;53672;48.176;16.338;2023-09-19T14:26:20;3.60;;;1.53;;
66761;SDS011;53672;48.176;16.338;2023-09-19T14:31:21;3.87;;;1.27;;
66761;SDS011;53672;48.176;16.338;2023-09-19T14:36:23;4.30;;;1.53;;
66761;SDS011;53672;48.176;16.338;2023-09-19T14:41:23;3.67;;;1.60;;
66761;SDS011;53672;48.176;16.338;2023-09-19T14:46:24;3.33;;;1.60;;
66761;SDS011;53672;48.176;16.338;2023-09-19T14:51:26;3.77;;;1.60;;
66761;SDS011;53672;48.176;16.338;2023-09-19T14:56:29;3.28;;;1.60;;
66761;SDS011;53672;48.176;16.338;2023-09-19T15:01:29;4.07;;;1.70;;
66761;SDS011;53672;48.176;16.338;2023-09-19T15:06:32;3.60;;;1.50;;
66761;SDS011;53672;48.176;16.338;2023-09-19T15:11:33;4.07;;;1.60;;
66761;SDS011;53672;48.176;16.338;2023-09-19T15:16:34;3.90;;;1.60;;
66761;SDS011;53672;48.176;16.338;2023-09-19T15:21:36;3.87;;;1.50;;
66761;SDS011;53672;48.176;16.338;2023-09-19T15:26:36;3.30;;;1.53;;
66761;SDS011;53672;48.176;16.338;2023-09-19T15:31:37;4.53;;;1.60;;
66761;SDS011;53672;48.176;16.338;2023-09-19T15:36:40;3.60;;;1.40;;
66761;SDS011;53672;48.176;16.338;2023-09-19T15:41:42;3.80;;;1.58;;
66761;SDS011;53672;48.176;16.338;2023-09-19T15:46:46;3.93;;;1.73;;
66761;SDS011;53672;48.176;16.338;2023-09-19T15:51:48;4.70;;;1.70;;
66761;SDS011;53672;48.176;16.338;2023-09-19T15:56:50;3.25;;;1.38;;
66761;SDS011;53672;48.176;16.338;2023-09-19T16:01:50;3.53;;;1.30;;
66761;SDS011;53672;48.176;16.338;2023-09-19T16:06:52;5.17;;;1.23;;
66761;SDS011;53672;48.176;16.338;2023-09-19T16:11:53;4.22;;;1.60;;
66761;SDS011;53672;48.176;16.338;2023-09-19T16:16:55;4.57;;;1.43;;
66761;SDS011;53672;48.176;16.338;2023-09-19T16:21:56;4.25;;;1.40;;
66761;SDS011;53672;48.176;16.338;2023-09-19T16:26:57;3.42;;;1.30;;
66761;SDS011;53672;48.176;16.338;2023-09-19T16:31:58;3.75;;;1.30;;
66761;SDS011;53672;48.176;16.338;2023-09-19T16:37:02;4.00;;;1.17;;
66761;SDS011;53672;48.176;16.338;2023-09-19T16:42:03;4.97;;;1.50;;
66761;SDS011;53672;48.176;16.338;2023-09-19T16:47:05;3.42;;;1.30;;
66761;SDS011;53672;48.176;16.338;2023-09-19T16:52:07;4.28;;;1.40;;
66761;SDS011;53672;48.176;16.338;2023-09-19T16:57:07;3.20;;;1.30;;
66761;SDS011;53672;48.176;16.338;2023-09-19T17:02:08;3.22;;;1.40;;
66761;SDS011;53672;48.176;16.338;2023-09-19T17:07:11;4.93;;;1.40;;
66761;SDS011;53672;48.176;16.338;2023-09-19T17:12:12;4.20;;;1.27;;
66761;SDS011;53672;48.176;16.338;2023-09-19T17:17:15;4.20;;;1.53;;
66761;SDS011;53672;48.176;16.338;2023-09-19T17:22:18;3.85;;;1.27;;
66761;SDS011;53672;48.176;16.338;2023-09-19T17:27:20;4.05;;;1.42;;
66761;SDS011;53672;48.176;16.338;2023-09-19T17:32:21;4.20;;;1.30;;
66761;SDS011;53672;48.176;16.338;2023-09-19T17:37:26;4.40;;;1.98;;
66761;SDS011;53672;48.176;16.338;2023-09-19T17:42:27;4.17;;;1.60;;
66761;SDS011;53672;48.176;16.338;2023-09-19T17:47:28;4.78;;;1.73;;
66761;SDS011;53672;48.176;16.338;2023-09-19T17:52:30;5.83;;;2.43;;
66761;SDS011;53672;48.176;16.338;2023-09-19T17:57:32;5.15;;;2.00;;
66761;SDS011;53672;48.176;16.338;2023-09-19T18:02:34;5.93;;;1.58;;
66761;SDS011;53672;48.176;16.338;2023-09-19T18:07:37;6.68;;;2.88;;
66761;SDS011;53672;48.176;16.338;2023-09-19T18:12:42;4.85;;;1.95;;
66761;SDS011;53672;48.176;16.338;2023-09-19T18:17:43;5.97;;;1.50;;
66761;SDS011;53672;48.176;16.338;2023-09-19T18:22:46;4.75;;;1.50;;
66761;SDS011;53672;48.176;16.338;2023-09-19T18:27:48;4.60;;;1.70;;
66761;SDS011;53672;48.176;16.338;2023-09-19T18:32:49;7.05;;;1.80;;
66761;SDS011;53672;48.176;16.338;2023-09-19T18:37:52;4.60;;;1.75;;
66761;SDS011;53672;48.176;16.338;2023-09-19T18:42:54;3.47;;;1.30;;
66761;SDS011;53672;48.176;16.338;2023-09-19T18:47:56;4.25;;;1.50;;
66761;SDS011;53672;48.176;16.338;2023-09-19T18:53:00;3.80;;;1.45;;
66761;SDS011;53672;48.176;16.338;2023-09-19T18:58:01;6.50;;;1.38;;
66761;SDS011;53672;48.176;16.338;2023-09-19T19:03:04;4.72;;;1.60;;
66761;SDS011;53672;48.176;16.338;2023-09-19T19:08:07;4.00;;;1.47;;
66761;SDS011;53672;48.176;16.338;2023-09-19T19:13:08;4.35;;;1.30;;
66761;SDS011;53672;48.176;16.338;2023-09-19T19:18:10;11.98;;;4.65;;
66761;SDS011;53672;48.176;16.338;2023-09-19T19:23:13;10.30;;;4.78;;
66761;SDS011;53672;48.176;16.338;2023-09-19T19:28:14;4.47;;;1.65;;
66761;SDS011;53672;48.176;16.338;2023-09-19T19:33:16;3.93;;;1.50;;
66761;SDS011;53672;48.176;16.338;2023-09-19T19:38:19;4.40;;;1.15;;
66761;SDS011;53672;48.176;16.338;2023-09-19T19:43:20;3.17;;;1.20;;
66761;SDS011;53672;48.176;16.338;2023-09-19T19:48:22;6.07;;;1.42;;
66761;SDS011;53672;48.176;16.338;2023-09-19T19:53:25;4.43;;;1.50;;
66761;SDS011;53672;48.176;16.338;2023-09-19T19:58:27;3.77;;;1.47;;
66761;SDS011;53672;48.176;16.338;2023-09-19T20:03:32;4.32;;;0.90;;
66761;SDS011;53672;48.176;16.338;2023-09-19T20:08:35;3.42;;;1.27;;
66761;SDS011;53672;48.176;16.338;2023-09-19T20:13:36;3.47;;;1.10;;
66761;SDS011;53672;48.176;16.338;2023-09-19T20:18:37;5.75;;;1.30;;
66761;SDS011;53672;48.176;16.338;2023-09-19T20:23:40;3.30;;;1.00;;
66761;SDS011;53672;48.176;16.338;2023-09-19T20:28:42;3.08;;;1.40;;
66761;SDS011;53672;48.176;16.338;2023-09-19T20:33:43;3.87;;;1.30;;
66761;SDS011;53672;48.176;16.338;2023-09-19T20:38:46;5.15;;;1.33;;
66761;SDS011;53672;48.176;16.338;2023-09-19T20:43:48;5.15;;;1.90;;
66761;SDS011;53672;48.176;16.338;2023-09-19T20:48:48;3.85;;;1.30;;
66761;SDS011;53672;48.176;16.338;2023-09-19T20:53:52;3.87;;;1.30;;
66761;SDS011;53672;48.176;16.338;2023-09-19T20:58:53;4.30;;;1.30;;
66761;SDS011;53672;48.176;16.338;2023-09-19T21:03:53;4.13;;;1.40;;
66761;SDS011;53672;48.176;16.338;2023-09-19T21:08:55;3.73;;;1.23;;
66761;SDS011;53672;48.176;16.338;2023-09-19T21:13:55;3.87;;;1.47;;
66761;SDS011;53672;48.176;16.338;2023-09-19T21:18:56;2.93;;;1.20;;
66761;SDS011;53672;48.176;16.338;2023-09-19T21:23:58;3.83;;;1.23;;
66761;SDS011;53672;48.176;16.338;2023-09-19T21:28:58;3.50;;;1.10;;
66761;SDS011;53672;48.176;16.338;2023-09-19T21:33:59;3.20;;;1.10;;
66761;SDS011;53672;48.176;16.338;2023-09-19T21:39:00;3.33;;;1.20;;
66761;SDS011;53672;48.176;16.338;2023-09-19T21:44:01;4.38;;;1.15;;
66761;SDS011;53672;48.176;16.338;2023-09-19T21:49:02;4.70;;;1.30;;
66761;SDS011;53672;48.176;16.338;2023-09-19T21:54:05;6.80;;;2.35;;
66761;SDS011;53672;48.176;16.338;2023-09-19T21:59:05;3.87;;;1.50;;
66761;SDS011;53672;48.176;16.338;2023-09-19T22:04:06;5.90;;;1.50;;
66761;SDS011;53672;48.176;16.338;2023-09-19T22:09:07;3.33;;;1.25;;
66761;SDS011;53672;48.176;16.338;2023-09-19T22:14:08;3.35;;;1.30;;
66761;SDS011;53672;48.176;16.338;2023-09-19T22:19:08;3.83;;;1.27;;
66761;SDS011;53672;48.176;16.338;2023-09-19T22:24:10;3.40;;;1.30;;
66761;SDS011;53672;48.176;16.338;2023-09-19T22:29:11;3.33;;;1.20;;
66761;SDS011;53672;48.176;16.338;2023-09-19T22:34:11;3.20;;;1.00;;
66761;SDS011;53672;48.176;16.338;2023-09-19T22:39:13;3.57;;;1.00;;
66761;SDS011;53672;48.176;16.338;2023-09-19T22:44:14;3.33;;;1.20;;
66761;SDS011;53672;48.176;16.338;2023-09-19T22:49:14;3.93;;;1.20;;
66761;SDS011;53672;48.176;16.338;2023-09-19T22:54:16;3.50;;;1.40;;
66761;SDS011;53672;48.176;16.338;2023-09-19T22:59:17;4.33;;;1.33;;
66761;SDS011;53672;48.176;16.338;2023-09-19T23:04:17;4.45;;;1.20;;
66761;SDS011;53672;48.176;16.338;2023-09-19T23:09:20;3.83;;;1.33;;
66761;SDS011;53672;48.176;16.338;2023-09-19T23:14:21;3.30;;;1.00;;
66761;SDS011;53672;48.176;16.338;2023-09-19T23:19:22;3.10;;;1.10;;
66761;SDS011;53672;48.176;16.338;2023-09-19T23:24:23;3.33;;;1.00;;
66761;SDS011;53672;48.176;16.338;2023-09-19T23:29:24;5.27;;;1.50;;
66761;SDS011;53672;48.176;16.338;2023-09-19T23:34:24;3.53;;;1.03;;
66761;SDS011;53672;48.176;16.338;2023-09-19T23:39:26;3.40;;;1.20;;
66761;SDS011;53672;48.176;16.338;2023-09-19T23:44:27;4.13;;;1.30;;
66761;SDS011;53672;48.176;16.338;2023-09-19T23:49:27;3.93;;;1.20;;
66761;SDS011;53672;48.176;16.338;2023-09-19T23:54:29;6.27;;;1.10;;
66761;SDS011;53672;48.176;16.338;2023-09-19T23:59:29;4.05;;;1.02;;
